Latest Coastal Weather Observations for Hogan Island

IDV60701

Issued at 7:51 pm EST Thursday 25 August 2016 (issued every 10 minutes, with the page automatically refreshed every 10 minutes)

About coastal observations | Map of coastal stations | Coastal observations for VIC | Marine services | Other Formats
Station Details ID: 200838 Name: HOGAN ISLAND Lat: -39.22 Lon: 146.98 Height: 116.0 m
Data from the previous 72 hours. | See also: Recent months at Hogan Island
Date/Time
EST
Temp
°C
Wind Pressure Rain since
9am
mm
Weather Cloud Vis
km
Sea
Height
m
Swell
Dir  Spd
kts
Gust
kts
hPa Trend Height
m
Period
s
Dir
25/07:30pm 9.5 SW 16 18 1015.2 - 0.0 - - - - - - -
25/07:00pm 9.6 SW 15 17 1014.8 - 0.0 - - - - - - -
25/06:30pm 9.4 SW 18 21 1014.4 - 0.0 - - - - - - -
25/06:00pm 9.2 SW 17 19 1014.2 - 0.0 - - - - - - -
25/05:30pm 9.0 SW 17 21 1013.8 - 0.0 - - - - - - -
25/05:00pm 9.2 WSW 18 21 1013.5 - 0.0 - - - - - - -
25/04:30pm 9.8 SW 18 22 1013.3 - 0.0 - - - - - - -
25/04:00pm 10.5 SW 18 21 1013.1 - 0.0 - - - - - - -
25/03:30pm 10.9 SW 17 21 1012.9 - 0.0 - - - - - - -
25/03:00pm 11.3 SW 16 19 1012.8 - 0.0 - - - - - - -
25/02:30pm 11.7 SW 16 20 1012.6 - 0.0 - - - - - - -
25/02:00pm 9.9 SW 17 20 1012.2 - 0.0 - - - - - - -
25/01:30pm 11.6 WSW 15 19 1012.1 - 0.0 - - - - - - -
25/01:00pm 11.6 SW 16 19 1012.1 - 0.0 - - - - - - -
25/12:30pm 11.8 SW 15 18 1012.1 - 0.0 - - - - - - -
25/12:00pm 11.5 WSW 16 20 1012.2 - 0.0 - - - - - - -
25/11:30am 10.6 SW 17 21 1012.2 - 0.0 - - - - - - -
25/11:00am 10.7 WSW 17 22 1012.1 - 0.0 - - - - - - -
25/10:30am 10.3 WSW 19 23 1011.9 - 0.0 - - - - - - -
25/10:00am 9.5 SW 18 22 1011.6 - 0.0 - - - - - - -
25/09:30am 9.3 SW 21 24 1011.4 - 0.0 - - - - - - -
25/09:00am 9.3 SW 21 25 1011.6 - 1.6 - - - - - - -
25/08:30am 8.8 WSW 22 25 1011.3 - 1.6 - - - - - - -
25/08:00am 8.7 WSW 20 24 1011.2 - 1.6 - - - - - - -
25/07:30am 8.4 WSW 22 26 1010.7 - 1.6 - - - - - - -
25/07:00am 8.2 SW 19 23 1010.5 - 1.6 - - - - - - -
25/06:30am 8.1 SW 20 24 1010.3 - 1.6 - - - - - - -
25/06:00am 8.3 WSW 22 26 1010.2 - 1.6 - - - - - - -
25/05:30am 8.2 SW 21 27 1009.9 - 1.6 - - - - - - -
25/05:00am 8.3 SW 19 24 1009.8 - 1.6 - - - - - - -
25/04:30am 8.2 WSW 19 22 1009.7 - 1.6 - - - - - - -
25/04:00am 8.4 W 18 22 1009.6 - 1.6 - - - - - - -
25/03:30am 8.4 WSW 19 22 1009.8 - 1.2 - - - - - - -
25/03:00am 8.1 WSW 19 23 1009.8 - 1.2 - - - - - - -
25/02:49am 7.7 SW 18 20 1009.9 - 1.2 - - - - - - -
25/02:30am 8.3 W 23 27 1009.8 - 0.0 - - - - - - -
25/02:20am 9.0 W 23 28 1009.7 - 0.0 - - - - - - -
25/02:00am 9.1 WSW 17 21 1010.0 - 0.0 - - - - - - -
25/01:30am 9.1 WSW 18 21 1010.3 - 0.0 - - - - - - -
25/01:00am 9.0 SW 17 21 1010.6 - 0.0 - - - - - - -
25/12:30am 9.1 WSW 18 22 1010.7 - 0.0 - - - - - - -
25/12:00am 9.0 SW 19 23 1011.1 - 0.0 - - - - - - -
 
Date/Time
EST
Temp
°C
Wind Pressure Rain since
9am
mm
Weather Cloud Vis
km
Sea
Height
m
Swell
Dir  Spd
kts
Gust
kts
hPa Trend Height
m
Period
s
Dir
24/11:30pm 9.1 SW 19 23 1011.2 - 0.0 - - - - - - -
24/11:00pm 9.3 WSW 20 23 1011.3 - 0.0 - - - - - - -
24/10:30pm 9.2 WSW 19 22 1011.5 - 0.0 - - - - - - -
24/10:00pm 9.0 WSW 19 23 1011.7 - 0.0 - - - - - - -
24/09:30pm 9.1 WSW 20 23 1011.9 - 0.0 - - - - - - -
24/09:00pm 9.2 WSW 22 25 1012.0 - 0.0 - - - - - - -
24/08:30pm 9.3 WSW 20 24 1011.9 - 0.0 - - - - - - -
24/08:00pm 9.0 WSW 22 25 1011.9 - 0.0 - - - - - - -
24/07:30pm 9.3 WSW 21 24 1012.1 - 0.0 - - - - - - -
24/07:00pm 9.2 WSW 21 24 1012.1 - 0.0 - - - - - - -
24/06:30pm 9.0 WSW 19 23 1012.0 - 0.0 - - - - - - -
24/06:00pm 9.0 WSW 19 23 1012.0 - 0.0 - - - - - - -
24/05:30pm 9.2 WSW 19 24 1011.9 - 0.0 - - - - - - -
24/05:00pm 9.6 WSW 18 22 1012.1 - 0.0 - - - - - - -
24/04:30pm 9.9 WSW 16 19 1012.2 - 0.0 - - - - - - -
24/04:00pm 9.6 WSW 15 18 1012.3 - 0.0 - - - - - - -
24/03:30pm 10.0 WSW 13 17 1012.5 - 0.0 - - - - - - -
24/03:00pm 10.6 WSW 13 16 1012.8 - 0.0 - - - - - - -
24/02:30pm 12.4 WSW 13 17 1012.7 - 0.0 - - - - - - -
24/02:00pm 11.7 SW 14 18 1012.7 - 0.0 - - - - - - -
24/01:30pm 11.5 SW 15 19 1012.7 - 0.0 - - - - - - -
24/01:00pm 10.8 SW 15 18 1013.2 - 0.0 - - - - - - -
24/12:30pm 11.4 SW 11 15 1013.6 - 0.0 - - - - - - -
24/12:00pm 11.2 SW 13 16 1014.2 - 0.0 - - - - - - -
24/11:30am 11.2 SW 11 15 1014.5 - 0.0 - - - - - - -
24/11:00am 11.7 SW 11 14 1014.8 - 0.0 - - - - - - -
24/10:30am 11.7 SW 9 11 1014.9 - 0.0 - - - - - - -
24/10:00am 11.7 SW 10 13 1015.1 - 0.0 - - - - - - -
24/09:30am 10.9 SW 10 13 1015.4 - 0.0 - - - - - - -
24/09:00am 9.7 SW 12 14 1015.7 - 0.0 - - - - - - -
24/08:30am 10.2 SSW 10 14 1015.6 - 0.0 - - - - - - -
24/08:00am 9.2 SW 10 13 1015.7 - 0.0 - - - - - - -
24/07:30am 8.6 SW 13 17 1015.6 - 0.0 - - - - - - -
24/07:00am 8.3 SW 10 14 1015.5 - 0.0 - - - - - - -
24/06:30am 8.4 SW 12 17 1015.4 - 0.0 - - - - - - -
24/06:00am 8.3 SW 13 16 1015.4 - 0.0 - - - - - - -
24/05:30am 8.6 SW 12 15 1015.3 - 0.0 - - - - - - -
24/05:00am 8.5 SW 11 13 1015.3 - 0.0 - - - - - - -
24/04:30am 8.7 SW 11 14 1015.2 - 0.0 - - - - - - -
24/04:00am 8.7 SW 11 15 1015.3 - 0.0 - - - - - - -
24/03:30am 8.8 SW 12 15 1015.3 - 0.0 - - - - - - -
24/03:00am 9.1 WSW 12 14 1015.6 - 0.0 - - - - - - -
24/02:30am 9.0 WSW 12 15 1015.7 - 0.0 - - - - - - -
24/02:00am 8.9 WSW 13 16 1016.0 - 0.0 - - - - - - -
24/01:30am 9.0 SW 14 17 1016.1 - 0.0 - - - - - - -
24/01:00am 8.9 SW 15 18 1016.0 - 0.0 - - - - - - -
24/12:30am 9.0 WSW 16 19 1015.9 - 0.0 - - - - - - -
24/12:00am 9.1 SW 16 19 1016.0 - 0.0 - - - - - - -
 
Date/Time
EST
Temp
°C
Wind Pressure Rain since
9am
mm
Weather Cloud Vis
km
Sea
Height
m
Swell
Dir  Spd
kts
Gust
kts
hPa Trend Height
m
Period
s
Dir
23/11:30pm 9.1 SW 17 20 1016.0 - 0.0 - - - - - - -
23/11:00pm 9.3 WSW 17 21 1016.2 - 0.0 - - - - - - -
23/10:30pm 9.2 WSW 16 19 1016.5 - 0.0 - - - - - - -
23/10:00pm 9.4 WSW 17 19 1016.7 - 0.0 - - - - - - -
23/09:30pm 9.0 W 17 19 1016.9 - 0.0 - - - - - - -
23/09:00pm 9.1 W 18 21 1017.1 - 0.0 - - - - - - -
23/08:30pm 9.3 W 18 21 1016.9 - 0.0 - - - - - - -
23/08:00pm 9.2 W 19 22 1016.9 - 0.0 - - - - - - -
23/07:30pm 9.3 W 18 21 1016.7 - 0.0 - - - - - - -
23/07:00pm 9.4 W 17 21 1016.9 - 0.0 - - - - - - -
23/06:30pm 9.7 W 18 21 1016.6 - 0.0 - - - - - - -
23/06:00pm 9.6 WSW 17 20 1016.6 - 0.0 - - - - - - -
23/05:30pm 9.7 W 16 18 1016.5 - 0.0 - - - - - - -
23/05:00pm 10.6 W 17 19 1016.3 - 0.0 - - - - - - -
23/04:30pm 10.2 W 16 18 1016.0 - 0.0 - - - - - - -
23/04:00pm 11.6 WSW 14 19 1015.9 - 0.0 - - - - - - -
23/03:30pm 11.3 WSW 16 20 1015.6 - 0.0 - - - - - - -
23/03:00pm 11.6 W 16 18 1015.6 - 0.0 - - - - - - -
23/02:30pm 12.3 WSW 15 17 1015.4 - 0.0 - - - - - - -
23/02:00pm 12.1 WSW 15 18 1015.5 - 0.0 - - - - - - -
23/01:30pm 11.6 WSW 15 18 1015.4 - 0.0 - - - - - - -
23/01:00pm 11.9 SW 15 20 1015.3 - 0.0 - - - - - - -
23/12:30pm 11.2 SW 15 19 1015.5 - 0.0 - - - - - - -
23/12:00pm 11.4 SW 15 19 1016.0 - 0.0 - - - - - - -
23/11:30am 10.5 SW 15 17 1016.4 - 0.0 - - - - - - -
23/11:00am 10.7 SW 13 17 1016.6 - 0.0 - - - - - - -
23/10:30am 11.2 SW 17 20 1016.6 - 0.0 - - - - - - -
23/10:00am 10.3 SW 16 20 1016.5 - 0.0 - - - - - - -
23/09:30am 10.2 WSW 14 19 1016.4 - 0.0 - - - - - - -
23/09:00am 9.2 WSW 20 26 1016.3 - 0.0 - - - - - - -
23/08:30am 10.0 SW 15 18 1016.0 - 0.0 - - - - - - -
23/08:00am 9.6 SW 17 19 1015.8 - 0.0 - - - - - - -
23/07:30am 8.9 SW 17 19 1015.6 - 0.0 - - - - - - -
23/07:00am 8.9 SW 16 20 1015.4 - 0.0 - - - - - - -
23/06:30am 9.2 SW 16 19 1015.1 - 0.0 - - - - - - -
23/06:00am 9.2 WSW 14 19 1014.9 - 0.0 - - - - - - -
23/05:30am 8.7 SW 15 17 1014.7 - 0.0 - - - - - - -
23/05:00am 8.8 SW 14 18 1014.6 - 0.0 - - - - - - -
23/04:30am 8.9 SW 16 18 1014.4 - 0.0 - - - - - - -
23/04:00am 8.8 SW 16 19 1014.2 - 0.0 - - - - - - -
23/03:30am 8.9 SW 17 20 1014.2 - 0.0 - - - - - - -
23/03:00am 8.9 SW 13 16 1014.4 - 0.0 - - - - - - -
23/02:30am 8.7 SW 15 18 1014.6 - 0.0 - - - - - - -
23/02:00am 8.8 SW 16 19 1014.7 - 0.0 - - - - - - -
23/01:30am 8.7 SW 16 19 1015.0 - 0.0 - - - - - - -
23/01:00am 8.7 SW 15 18 1015.0 - 0.0 - - - - - - -
23/12:30am 8.8 SW 14 17 1015.0 - 0.0 - - - - - - -
23/12:00am 8.8 SW 13 15 1015.1 - 0.0 - - - - - - -
 
Date/Time
EST
Temp
°C
Wind Pressure Rain since
9am
mm
Weather Cloud Vis
km
Sea
Height
m
Swell
Dir  Spd
kts
Gust
kts
hPa Trend Height
m
Period
s
Dir
22/11:30pm 8.9 SW 13 15 1015.0 - 0.0 - - - - - - -
22/11:00pm 9.2 SW 11 14 1015.0 - 0.0 - - - - - - -
22/10:30pm 9.7 SW 11 13 1015.1 - 0.0 - - - - - - -
22/10:00pm 9.7 SW 8 11 1015.1 - 0.0 - - - - - - -
22/09:30pm 9.6 SW 6 8 1015.0 - 0.0 - - - - - - -
22/09:00pm 9.6 SW 9 11 1015.1 - 0.0 - - - - - - -
22/08:30pm 9.6 SW 9 10 1014.8 - 0.0 - - - - - - -
22/08:00pm 9.6 SW 9 11 1014.5 - 0.0 - - - - - - -

Other Formats:

Comma delimited format used in spreadsheet applications
http://www.bom.gov.au/fwo/IDV60701/IDV60701.94949.axf

JavaScript Object Notation format (JSON) in row-major order
http://www.bom.gov.au/fwo/IDV60701/IDV60701.94949.json